createdAt,value
2019-03-09T00:01:19.650Z,100110.20
2019-03-09T00:04:23.178Z,100107.19
2019-03-09T00:07:27.693Z,100100.92
2019-03-09T00:10:31.201Z,100111.16
2019-03-09T00:13:34.725Z,100100.92
2019-03-09T00:16:39.231Z,100109.30
2019-03-09T00:19:43.750Z,100099.23
2019-03-09T00:22:51.371Z,100088.75
2019-03-09T00:26:13.533Z,100095.27
2019-03-09T00:29:23.963Z,100088.75
2019-03-09T00:32:27.901Z,100097.06
2019-03-09T00:35:31.383Z,100085.24
2019-03-09T00:38:36.941Z,100086.20
2019-03-09T00:41:41.440Z,100072.60
2019-03-09T00:44:45.968Z,100072.60
2019-03-09T00:47:49.470Z,100072.60
2019-03-09T00:50:52.969Z,100066.95
2019-03-09T00:53:57.543Z,100062.02
2019-03-09T00:57:01.477Z,100065.23
2019-03-09T01:00:06.055Z,100058.14
2019-03-09T01:03:09.464Z,100055.96
2019-03-09T01:06:12.934Z,100059.00
2019-03-09T01:09:16.446Z,100051.16
2019-03-09T01:12:19.924Z,100043.33
2019-03-09T01:15:24.476Z,100039.92
2019-03-09T01:18:27.971Z,100034.16
2019-03-09T01:21:33.509Z,100039.92
2019-03-09T01:24:37.011Z,100034.27
2019-03-09T01:27:40.505Z,100028.86
2019-03-09T01:30:44.016Z,100018.73
2019-03-09T01:33:48.543Z,100012.59
2019-03-09T01:36:53.049Z,100010.05
2019-03-09T01:39:56.571Z,100014.41
2019-03-09T01:42:59.992Z,100013.55
2019-03-09T01:46:03.507Z,100008.15
2019-03-09T01:49:07.187Z,100008.72
2019-03-09T01:52:10.630Z,100007.39
2019-03-09T01:55:17.353Z,100009.22
2019-03-09T01:58:20.842Z,100006.67
2019-03-09T02:01:24.350Z,100003.17
2019-03-09T02:04:27.790Z,99999.70
2019-03-09T02:07:31.266Z,100004.98
2019-03-09T02:10:34.856Z,99998.09
2019-03-09T02:13:38.337Z,99992.69
2019-03-09T02:16:41.856Z,99990.04
2019-03-09T02:19:45.352Z,99990.89
2019-03-09T02:22:48.858Z,99980.41
2019-03-09T02:25:52.352Z,99973.43
2019-03-09T02:28:55.850Z,99974.26
2019-03-09T02:31:59.345Z,99970.39
2019-03-09T02:35:02.872Z,99964.16
2019-03-09T02:38:14.386Z,99943.45
2019-03-09T02:41:17.854Z,99931.07
2019-03-09T02:44:21.348Z,99922.73
2019-03-09T02:47:24.839Z,99911.21
2019-03-09T02:50:28.339Z,99908.17
2019-03-09T02:53:31.792Z,99909.03
2019-03-09T02:56:35.247Z,99906.49
2019-03-09T02:59:38.876Z,99903.48
2019-03-09T03:03:01.669Z,99903.84
2019-03-09T03:06:06.136Z,99899.52
2019-03-09T03:09:09.619Z,99895.05
2019-03-09T03:12:14.157Z,99891.58
2019-03-09T03:15:30.475Z,99885.42
2019-03-09T03:18:33.943Z,99883.73
2019-03-09T03:21:37.550Z,99878.34
2019-03-09T03:24:41.071Z,99873.05
2019-03-09T03:27:44.481Z,99866.06
2019-03-09T03:30:47.953Z,99856.41
2019-03-09T03:33:51.548Z,99856.41
2019-03-09T03:36:57.098Z,99852.44
2019-03-09T03:40:01.644Z,99842.23
2019-03-09T03:43:06.185Z,99843.17
2019-03-09T03:46:10.669Z,99840.52
2019-03-09T03:49:14.176Z,99834.41
2019-03-09T03:52:17.679Z,99832.58
2019-03-09T03:55:22.292Z,99822.96
2019-03-09T03:58:25.723Z,99796.48
2019-03-09T04:01:30.274Z,99786.48
2019-03-09T04:04:33.726Z,99775.78
2019-03-09T04:07:37.278Z,99772.30
2019-03-09T04:10:40.766Z,99773.63
2019-03-09T04:13:44.263Z,99777.60
2019-03-09T04:16:47.906Z,99770.98
2019-03-09T04:19:51.452Z,99770.98
2019-03-09T04:22:54.954Z,99766.63
2019-03-09T04:25:58.434Z,99758.69
2019-03-09T04:29:03.891Z,99748.09
2019-03-09T04:32:07.504Z,99741.13
2019-03-09T04:35:11.025Z,99738.36
2019-03-09T04:38:14.484Z,99737.50
2019-03-09T04:41:18.000Z,99730.89
2019-03-09T04:44:21.429Z,99720.91
2019-03-09T04:47:24.915Z,99719.59
2019-03-09T04:50:28.407Z,99715.12
2019-03-09T04:53:31.981Z,99701.41
2019-03-09T04:56:35.570Z,99698.41
2019-03-09T04:59:39.027Z,99687.83
2019-03-09T05:02:42.492Z,99683.85
2019-03-09T05:05:46.006Z,99679.53
2019-03-09T05:08:58.804Z,99667.23
2019-03-09T05:12:02.426Z,99668.20
2019-03-09T05:15:07.781Z,99662.44
2019-03-09T05:18:12.292Z,99660.25
2019-03-09T05:21:15.810Z,99645.70
2019-03-09T05:24:19.223Z,99647.02
2019-03-09T05:27:22.700Z,99637.76
2019-03-09T05:30:46.280Z,99628.50
2019-03-09T05:33:49.859Z,99612.61
2019-03-09T05:36:54.393Z,99617.91
2019-03-09T05:39:57.913Z,99619.59
2019-03-09T05:43:01.458Z,99625.49
2019-03-09T05:46:04.899Z,99633.79
2019-03-09T05:49:08.403Z,99618.13
2019-03-09T05:52:32.590Z,99616.34
2019-03-09T05:55:37.131Z,99603.58
2019-03-09T05:58:40.596Z,99589.98
2019-03-09T06:01:45.169Z,99585.05
2019-03-09T06:04:49.645Z,99583.73
2019-03-09T06:07:53.164Z,99575.44
2019-03-09T06:10:56.750Z,99582.05
2019-03-09T06:14:00.366Z,99576.88
2019-03-09T06:17:04.916Z,99569.75
2019-03-09T06:20:08.378Z,99571.47
2019-03-09T06:23:13.933Z,99567.96
2019-03-09T06:26:17.433Z,99571.08
2019-03-09T06:29:20.935Z,99561.11
2019-03-09T06:33:00.779Z,99561.11
2019-03-09T06:36:35.942Z,99551.11
2019-03-09T06:39:45.161Z,99543.91
2019-03-09T06:42:52.112Z,99554.14
2019-03-09T06:45:56.697Z,99541.84
2019-03-09T06:49:00.183Z,99544.88
2019-03-09T06:52:03.669Z,99534.29
2019-03-09T06:55:08.306Z,99545.46
2019-03-09T06:58:13.517Z,99530.79
2019-03-09T07:01:19.014Z,99538.49
2019-03-09T07:04:22.440Z,99542.46
2019-03-09T07:07:25.888Z,99540.75
2019-03-09T07:10:29.384Z,99530.55
2019-03-09T07:13:32.893Z,99528.84
2019-03-09T07:16:36.327Z,99535.11
2019-03-09T07:19:40.735Z,99527.05
2019-03-09T07:22:44.155Z,99538.10
2019-03-09T07:25:47.617Z,99530.78
2019-03-09T07:28:51.225Z,99530.67
2019-03-09T07:31:54.729Z,99547.02
2019-03-09T07:34:58.220Z,99547.02
2019-03-09T07:38:01.734Z,99538.72
2019-03-09T07:41:05.218Z,99550.63
2019-03-09T07:44:08.939Z,99549.31
2019-03-09T07:47:12.443Z,99555.56
2019-03-09T07:50:15.938Z,99547.98
2019-03-09T07:53:20.461Z,99534.40
2019-03-09T07:56:23.945Z,99533.19
2019-03-09T07:59:27.388Z,99521.17
2019-03-09T08:02:30.971Z,99519.46
2019-03-09T08:05:36.503Z,99521.28
2019-03-09T08:08:40.022Z,99532.69
2019-03-09T08:11:44.525Z,99516.81
2019-03-09T08:14:48.025Z,99517.55
2019-03-09T08:17:51.497Z,99510.82
2019-03-09T08:20:54.946Z,99525.50
2019-03-09T08:23:58.440Z,99528.73
2019-03-09T08:27:02.033Z,99525.03
2019-03-09T08:30:07.294Z,99512.50
2019-03-09T08:33:10.795Z,99512.15
2019-03-09T08:36:14.394Z,99513.59
2019-03-09T08:39:17.924Z,99516.00
2019-03-09T08:42:22.442Z,99510.59
2019-03-09T08:45:25.852Z,99516.59
2019-03-09T08:48:32.317Z,99518.30
2019-03-09T08:51:35.985Z,99524.18
2019-03-09T08:54:39.499Z,99538.16
2019-03-09T08:57:42.930Z,99540.41
2019-03-09T09:00:46.516Z,99503.63
2019-03-09T09:03:50.114Z,99483.66
2019-03-09T09:06:53.557Z,99501.22
2019-03-09T09:09:57.006Z,99511.19
2019-03-09T09:13:00.557Z,99505.53
2019-03-09T09:16:03.984Z,99509.04
2019-03-09T09:19:08.527Z,99512.51
2019-03-09T09:22:12.136Z,99514.92
2019-03-09T09:25:15.808Z,99506.98
2019-03-09T09:28:19.457Z,99519.51
2019-03-09T09:31:22.885Z,99511.19
2019-03-09T09:34:26.385Z,99528.27
2019-03-09T09:37:30.050Z,99540.92
2019-03-09T09:40:33.758Z,99534.19
2019-03-09T09:43:37.349Z,99534.66
2019-03-09T09:46:40.839Z,99537.54
2019-03-09T09:49:44.343Z,99556.92
2019-03-09T09:52:48.870Z,99551.52
2019-03-09T09:55:52.385Z,99544.31
2019-03-09T09:58:56.895Z,99556.58
2019-03-09T10:02:01.479Z,99544.05
2019-03-09T10:05:05.119Z,99550.08
2019-03-09T10:08:09.655Z,99538.52
2019-03-09T10:11:13.159Z,99537.58
2019-03-09T10:14:17.698Z,99556.46
2019-03-09T10:17:21.173Z,99562.50
2019-03-09T10:20:24.702Z,99569.11
2019-03-09T10:23:28.193Z,99568.03
2019-03-09T10:26:31.691Z,99566.20
2019-03-09T10:29:35.259Z,99563.31
2019-03-09T10:32:38.693Z,99571.06
2019-03-09T10:35:43.231Z,99571.80
2019-03-09T10:38:46.727Z,99582.74
2019-03-09T10:41:50.208Z,99587.06
2019-03-09T10:44:53.721Z,99577.56
2019-03-09T10:47:57.217Z,99576.23
2019-03-09T10:51:00.708Z,99578.53
2019-03-09T10:54:04.222Z,99577.09
2019-03-09T10:57:07.718Z,99586.83
2019-03-09T11:00:17.461Z,99591.55
2019-03-09T11:03:21.058Z,99586.25
2019-03-09T11:06:24.575Z,99584.80
2019-03-09T11:09:28.082Z,99597.42
2019-03-09T11:12:31.573Z,99594.66
2019-03-09T11:15:37.514Z,99594.31
2019-03-09T11:18:40.545Z,99583.36
2019-03-09T11:21:44.235Z,99588.54
2019-03-09T11:24:47.831Z,99582.27
2019-03-09T11:27:51.348Z,99574.79
2019-03-09T11:30:55.850Z,99563.95
2019-03-09T11:33:59.357Z,99566.25
2019-03-09T11:37:02.871Z,99573.23
2019-03-09T11:40:06.359Z,99560.95
2019-03-09T11:43:09.857Z,99566.25
2019-03-09T11:46:13.358Z,99550.95
2019-03-09T11:49:16.855Z,99567.58
2019-03-09T11:52:21.389Z,99548.66
2019-03-09T11:55:25.010Z,99556.60
2019-03-09T11:58:28.567Z,99546.86
2019-03-09T12:01:32.109Z,99553.02
2019-03-09T12:04:46.411Z,99531.82
2019-03-09T12:07:41.962Z,99529.52
2019-03-09T12:10:45.533Z,99545.06
2019-03-09T12:13:48.973Z,99549.27
2019-03-09T12:16:52.457Z,99536.99
2019-03-09T12:19:55.983Z,99536.64
2019-03-09T12:23:12.299Z,99536.87
2019-03-09T12:26:15.914Z,99539.41
2019-03-09T12:29:19.380Z,99542.64
2019-03-09T12:32:22.919Z,99536.02
2019-03-09T12:35:26.500Z,99535.05
2019-03-09T12:38:30.013Z,99526.75
2019-03-09T12:41:33.584Z,99548.67
2019-03-09T12:44:37.085Z,99535.42
2019-03-09T12:47:40.590Z,99546.38
2019-03-09T12:50:44.093Z,99539.41
2019-03-09T12:53:47.584Z,99526.86
2019-03-09T12:56:51.132Z,99527.83
2019-03-09T12:59:54.633Z,99514.70
2019-03-09T13:02:58.095Z,99531.80
2019-03-09T13:06:01.610Z,99537.10
2019-03-09T13:09:05.283Z,99545.05
2019-03-09T13:12:08.971Z,99537.57
2019-03-09T13:15:13.892Z,99547.70
2019-03-09T13:18:17.448Z,99540.95
2019-03-09T13:21:20.973Z,99538.30
2019-03-09T13:24:25.484Z,99551.67
2019-03-09T13:27:28.959Z,99546.02
2019-03-09T13:30:32.462Z,99528.42
2019-03-09T13:33:36.993Z,99524.45
2019-03-09T13:36:40.506Z,99517.83
2019-03-09T13:39:45.024Z,99516.15
2019-03-09T13:42:48.522Z,99513.03
2019-03-09T13:45:52.039Z,99500.38
2019-03-09T13:48:55.671Z,99484.59
2019-03-09T13:51:59.182Z,99487.01
2019-03-09T13:55:02.631Z,99486.42
2019-03-09T13:58:06.252Z,99471.35
2019-03-09T14:01:09.755Z,99458.11
2019-03-09T14:04:13.197Z,99438.23
2019-03-09T14:07:16.654Z,99441.52
2019-03-09T14:10:20.303Z,99424.41
2019-03-09T14:13:23.731Z,99405.86
2019-03-09T14:16:27.242Z,99418.38
2019-03-09T14:19:30.765Z,99415.72
2019-03-09T14:22:34.250Z,99400.20
2019-03-09T14:25:37.753Z,99400.68
2019-03-09T14:28:41.380Z,99414.63
2019-03-09T14:31:45.975Z,99411.16
2019-03-09T14:34:49.680Z,99419.92
2019-03-09T14:37:53.183Z,99435.00
2019-03-09T14:40:56.682Z,99444.27
2019-03-09T14:44:00.192Z,99431.49
2019-03-09T14:47:03.735Z,99447.39
2019-03-09T14:50:07.195Z,99454.02
2019-03-09T14:53:10.610Z,99442.94
2019-03-09T14:56:14.204Z,99444.15
2019-03-09T14:59:17.684Z,99436.67
2019-03-09T15:02:21.214Z,99423.08
2019-03-09T15:05:24.695Z,99434.49
2019-03-09T15:08:28.195Z,99422.45
2019-03-09T15:11:31.699Z,99412.48
2019-03-09T15:14:35.218Z,99396.34
2019-03-09T15:17:44.771Z,99395.95
2019-03-09T15:20:48.370Z,99388.98
2019-03-09T15:23:51.830Z,99382.59
2019-03-09T15:26:55.369Z,99385.11
2019-03-09T15:29:58.795Z,99378.73
2019-03-09T15:33:02.244Z,99368.52
2019-03-09T15:36:05.853Z,99362.24
2019-03-09T15:39:10.361Z,99349.97
2019-03-09T15:42:13.876Z,99361.77
2019-03-09T15:45:18.397Z,99363.91
2019-03-09T15:48:21.911Z,99363.91
2019-03-09T15:51:26.226Z,99352.63
2019-03-09T15:54:29.657Z,99351.30
2019-03-09T15:57:33.122Z,99343.70
2019-03-09T16:00:36.551Z,99327.80
2019-03-09T16:03:40.028Z,99312.00
2019-03-09T16:06:43.513Z,99295.77
2019-03-09T16:09:47.041Z,99278.89
2019-03-09T16:12:50.567Z,99262.86
2019-03-09T16:15:54.028Z,99252.27
2019-03-09T16:18:57.528Z,99239.87
2019-03-09T16:22:00.985Z,99229.88
2019-03-09T16:25:04.658Z,99224.44
2019-03-09T16:28:08.191Z,99212.66
2019-03-09T16:31:11.627Z,99207.48
2019-03-09T16:34:15.044Z,99209.31
2019-03-09T16:37:19.558Z,99190.05
2019-03-09T16:40:23.057Z,99202.31
2019-03-09T16:43:27.601Z,99216.41
2019-03-09T16:46:31.252Z,99232.78
2019-03-09T16:49:34.680Z,99222.17
2019-03-09T16:52:38.409Z,99208.23
2019-03-09T16:55:41.960Z,99203.42
2019-03-09T16:58:45.404Z,99201.24
2019-03-09T17:01:49.010Z,99202.56
2019-03-09T17:04:52.717Z,99191.97
2019-03-09T17:07:56.269Z,99179.36
2019-03-09T17:10:59.709Z,99157.53
2019-03-09T17:14:03.226Z,99153.22
2019-03-09T17:17:07.720Z,99158.86
2019-03-09T17:20:12.356Z,99149.72
2019-03-09T17:23:15.964Z,99151.20
2019-03-09T17:26:19.584Z,99140.23
2019-03-09T17:29:23.108Z,99125.05
2019-03-09T17:32:26.790Z,99117.11
2019-03-09T17:35:33.348Z,99118.09
2019-03-09T17:38:36.956Z,99133.27
2019-03-09T17:41:40.397Z,99122.06
2019-03-09T17:44:43.857Z,99117.37
2019-03-09T17:47:48.478Z,99099.55
2019-03-09T17:50:51.922Z,99108.44
2019-03-09T17:53:55.413Z,99092.42
2019-03-09T17:56:58.925Z,99074.72
2019-03-09T18:00:02.497Z,99056.92
2019-03-09T18:03:07.028Z,99043.55
2019-03-09T18:06:10.443Z,99037.77
2019-03-09T18:09:13.967Z,99050.16
2019-03-09T18:12:17.398Z,99050.54
2019-03-09T18:15:20.814Z,99056.78
2019-03-09T18:18:24.334Z,99052.12
2019-03-09T18:21:27.752Z,99056.10
2019-03-09T18:24:31.213Z,99047.17
2019-03-09T18:27:34.930Z,99030.67
2019-03-09T18:30:38.540Z,99062.08
2019-03-09T18:33:41.958Z,99051.02
2019-03-09T18:36:45.391Z,99050.16
2019-03-09T18:39:48.874Z,99048.36
2019-03-09T18:42:52.327Z,99069.69
2019-03-09T18:45:55.833Z,99080.84
2019-03-09T18:49:01.384Z,99093.53
2019-03-09T18:52:04.882Z,99087.52
2019-03-09T18:55:08.505Z,99090.16
2019-03-09T18:58:12.079Z,99080.55
2019-03-09T19:01:16.637Z,99069.82
2019-03-09T19:04:21.148Z,99076.91
2019-03-09T19:07:24.636Z,99091.61
2019-03-09T19:10:29.045Z,99115.95
2019-03-09T19:13:32.660Z,99135.19
2019-03-09T19:16:36.157Z,99168.67
2019-03-09T19:19:40.676Z,99142.45
2019-03-09T19:22:44.196Z,99144.72
2019-03-09T19:25:47.681Z,99142.45
2019-03-09T19:28:51.187Z,99157.02
2019-03-09T19:31:54.786Z,99166.28
2019-03-09T19:34:59.442Z,99180.22
2019-03-09T19:38:02.890Z,99183.13
2019-03-09T19:41:07.310Z,99160.34
2019-03-09T19:44:10.962Z,99195.55
2019-03-09T19:47:14.455Z,99209.98
2019-03-09T19:50:19.014Z,99206.61
2019-03-09T19:53:22.472Z,99213.36
2019-03-09T19:56:25.894Z,99232.41
2019-03-09T19:59:29.430Z,99246.84
2019-03-09T20:02:32.861Z,99250.31
2019-03-09T20:05:36.298Z,99282.09
2019-03-09T20:08:40.811Z,99293.05
2019-03-09T20:11:45.307Z,99305.59
2019-03-09T20:14:49.849Z,99308.48
2019-03-09T20:17:53.370Z,99310.80
2019-03-09T20:20:57.883Z,99332.08
2019-03-09T20:24:01.440Z,99345.22
2019-03-09T20:27:04.980Z,99361.81
2019-03-09T20:30:08.952Z,99377.23
2019-03-09T20:33:12.373Z,99377.70
2019-03-09T20:36:15.991Z,99385.89
2019-03-09T20:39:19.503Z,99406.03
2019-03-09T20:42:24.088Z,99383.14
2019-03-09T20:45:27.725Z,99405.65
2019-03-09T20:48:32.370Z,99408.42
2019-03-09T20:51:37.465Z,99414.81
2019-03-09T20:54:41.094Z,99418.91
2019-03-09T20:57:45.648Z,99427.18
2019-03-09T21:00:51.347Z,99435.24
2019-03-09T21:03:54.974Z,99443.57
2019-03-09T21:06:58.631Z,99473.41
2019-03-09T21:10:02.151Z,99478.35
2019-03-09T21:13:06.847Z,99497.86
2019-03-09T21:16:10.792Z,99493.89
2019-03-09T21:19:16.324Z,99500.63
2019-03-09T21:22:19.787Z,99521.07
2019-03-09T21:25:23.532Z,99544.05
2019-03-09T21:28:28.078Z,99548.98
2019-03-09T21:31:31.511Z,99562.45
2019-03-09T21:34:35.024Z,99568.72
2019-03-09T21:37:38.510Z,99580.98
2019-03-09T21:40:44.067Z,99592.08
2019-03-09T21:43:47.562Z,99589.04
2019-03-09T21:46:51.079Z,99606.86
2019-03-09T21:49:55.569Z,99619.13
2019-03-09T21:53:00.093Z,99626.33
2019-03-09T21:56:04.630Z,99627.30
2019-03-09T21:59:08.169Z,99635.85
2019-03-09T22:02:12.689Z,99654.96
2019-03-09T22:05:17.246Z,99659.05
2019-03-09T22:08:21.742Z,99667.23
2019-03-09T22:11:25.216Z,99668.78
2019-03-09T22:14:28.717Z,99695.86
2019-03-09T22:17:32.215Z,99680.33
2019-03-09T22:20:37.672Z,99685.38
2019-03-09T22:23:44.363Z,99691.14
2019-03-09T22:26:46.385Z,99708.34
2019-03-09T22:29:49.957Z,99715.58
2019-03-09T22:32:53.406Z,99723.12
2019-03-09T22:35:56.899Z,99732.39
2019-03-09T22:39:01.421Z,99733.36
2019-03-09T22:42:04.954Z,99738.64
2019-03-09T22:45:09.424Z,99742.27
2019-03-09T22:48:12.954Z,99745.27
2019-03-09T22:51:16.541Z,99751.13
2019-03-09T22:54:20.161Z,99746.09
2019-03-09T22:57:23.655Z,99755.71
2019-03-09T23:00:27.203Z,99757.89
2019-03-09T23:03:30.649Z,99764.98
2019-03-09T23:06:35.199Z,99778.78
2019-03-09T23:09:39.725Z,99779.39
2019-03-09T23:12:44.293Z,99779.75
2019-03-09T23:15:47.718Z,99789.01
2019-03-09T23:18:51.196Z,99797.52
2019-03-09T23:21:54.656Z,99804.14
2019-03-09T23:24:58.159Z,99809.08
2019-03-09T23:28:01.645Z,99801.13
2019-03-09T23:31:05.240Z,99801.13
2019-03-09T23:34:08.746Z,99807.39
2019-03-09T23:37:13.318Z,99817.02
2019-03-09T23:40:17.836Z,99819.30
2019-03-09T23:43:21.298Z,99815.55
2019-03-09T23:46:24.814Z,99824.70
2019-03-09T23:49:28.324Z,99835.75
2019-03-09T23:52:31.815Z,99839.36
2019-03-09T23:55:36.333Z,99847.30
2019-03-09T23:58:39.817Z,99843.80
